Time;durP1;ratioP1;P1;durP2;ratioP2;P2;SDS_P1;SDS_P2;PMS_P1;PMS_P2;Temp;Humidity;BMP_temperature;BMP_pressure;BME280_temperature;BME280_humidity;BME280_pressure;Samples;Min_cycle;Max_cycle;Signal;HPM_P1;HPM_P2
2023/01/07 00:00:09;;;;;;;0.67;0.50;;;10.60;99.90;;;;;;5033855;28;20811;-46
2023/01/07 00:02:41;;;;;;;0.50;0.30;;;10.60;99.90;;;;;;5036472;28;20536;-46
2023/01/07 00:05:10;;;;;;;0.60;0.47;;;10.60;99.90;;;;;;5035570;28;21060;-46
2023/01/07 00:07:39;;;;;;;2.37;0.93;;;10.60;99.90;;;;;;5036400;28;20445;-46
2023/01/07 00:10:08;;;;;;;0.60;0.57;;;10.60;99.90;;;;;;5049184;28;20479;-46
2023/01/07 00:12:36;;;;;;;0.70;0.50;;;10.60;99.90;;;;;;5048384;28;20486;-47
2023/01/07 00:15:06;;;;;;;0.70;0.60;;;10.60;99.90;;;;;;5047767;28;20488;-48
2023/01/07 00:17:34;;;;;;;0.70;0.40;;;10.60;99.90;;;;;;5045130;28;20437;-46
2023/01/07 00:20:05;;;;;;;0.40;0.30;;;10.60;99.90;;;;;;5031078;28;20479;-46
2023/01/07 00:22:34;;;;;;;1.00;0.60;;;10.50;99.90;;;;;;5061641;28;20521;-46
2023/01/07 00:25:02;;;;;;;0.50;0.50;;;10.50;99.90;;;;;;5045938;28;20474;-47
2023/01/07 00:27:31;;;;;;;0.70;0.40;;;10.60;99.90;;;;;;5045954;28;20444;-46
2023/01/07 00:30:00;;;;;;;0.80;0.60;;;10.50;99.90;;;;;;5026883;28;21066;-47
2023/01/07 00:32:49;;;;;;;0.53;0.40;;;10.60;99.90;;;;;;5045354;28;20442;-47
2023/01/07 00:35:23;;;;;;;0.80;0.50;;;10.60;99.90;;;;;;5032416;28;20473;-48
2023/01/07 00:37:52;;;;;;;0.50;0.40;;;10.50;99.90;;;;;;5036768;28;20965;-47
2023/01/07 00:40:22;;;;;;;0.50;0.40;;;10.50;99.90;;;;;;5045438;28;20482;-47
2023/01/07 00:43:00;;;;;;;0.70;0.50;;;10.50;99.90;;;;;;5042361;28;20423;-46
2023/01/07 00:45:31;;;;;;;0.73;0.50;;;10.50;99.90;;;;;;5026205;28;20893;-48
2023/01/07 00:48:01;;;;;;;0.60;0.40;;;10.60;99.90;;;;;;5049902;28;20637;-46
2023/01/07 00:50:33;;;;;;;0.50;0.40;;;10.50;99.90;;;;;;5030814;28;20460;-46
2023/01/07 00:53:01;;;;;;;0.77;0.57;;;10.50;99.90;;;;;;5060572;28;20522;-47
2023/01/07 00:55:30;;;;;;;0.63;0.40;;;10.50;99.90;;;;;;5029867;28;20561;-48
2023/01/07 00:57:59;;;;;;;1.33;0.40;;;10.50;99.90;;;;;;5028871;28;20527;-47
2023/01/07 01:00:29;;;;;;;0.60;0.50;;;10.50;99.90;;;;;;5060335;28;20478;-47
2023/01/07 01:02:58;;;;;;;0.50;0.40;;;10.50;99.90;;;;;;5027440;28;20445;-45
2023/01/07 01:05:26;;;;;;;0.80;0.60;;;10.50;99.90;;;;;;5044881;28;20483;-46
2023/01/07 01:07:57;;;;;;;0.50;0.47;;;10.50;99.90;;;;;;5030776;28;20520;-48
2023/01/07 01:10:26;;;;;;;0.50;0.50;;;10.50;99.90;;;;;;5062102;28;20475;-47
2023/01/07 01:12:55;;;;;;;0.67;0.40;;;10.50;99.90;;;;;;5059193;28;20431;-46
2023/01/07 01:15:24;;;;;;;0.60;0.40;;;10.50;99.90;;;;;;5028805;28;20476;-47
2023/01/07 01:17:53;;;;;;;0.60;0.40;;;10.50;99.90;;;;;;5059269;28;20561;-48
2023/01/07 01:20:21;;;;;;;1.27;0.60;;;10.50;99.90;;;;;;5043636;28;20470;-47
2023/01/07 01:22:50;;;;;;;0.70;0.60;;;10.50;99.90;;;;;;5029771;28;20445;-46
2023/01/07 01:25:20;;;;;;;0.93;0.60;;;10.50;99.90;;;;;;5045174;28;20534;-46
2023/01/07 01:27:49;;;;;;;0.70;0.50;;;10.50;99.90;;;;;;5041957;28;20518;-45
2023/01/07 01:30:18;;;;;;;0.60;0.43;;;10.50;99.90;;;;;;5045038;28;20901;-48
2023/01/07 01:32:47;;;;;;;0.60;0.40;;;10.50;99.90;;;;;;5032797;28;20445;-48
2023/01/07 01:35:16;;;;;;;0.63;0.40;;;10.50;99.90;;;;;;5028474;28;20475;-47
2023/01/07 01:37:45;;;;;;;0.70;0.50;;;10.50;99.90;;;;;;5044064;28;20443;-47
2023/01/07 01:40:14;;;;;;;0.60;0.40;;;10.50;99.90;;;;;;5043477;28;20481;-47
2023/01/07 01:42:44;;;;;;;0.77;0.50;;;10.50;99.90;;;;;;5046642;28;20448;-46
2023/01/07 01:45:20;;;;;;;0.90;0.50;;;10.50;99.90;;;;;;5024883;28;20488;-48
2023/01/07 01:47:51;;;;;;;0.60;0.40;;;10.50;99.90;;;;;;5044594;28;20458;-47
2023/01/07 01:50:26;;;;;;;0.73;0.60;;;10.50;99.90;;;;;;5029575;28;20508;-49
2023/01/07 01:53:01;;;;;;;0.77;0.43;;;10.50;99.90;;;;;;5039348;28;20535;-47
2023/01/07 01:55:34;;;;;;;0.57;0.40;;;10.50;99.90;;;;;;5046574;28;20523;-47
2023/01/07 01:58:09;;;;;;;0.67;0.50;;;10.50;99.90;;;;;;5029056;28;20440;-46
2023/01/07 02:00:38;;;;;;;0.80;0.50;;;10.50;99.90;;;;;;5043282;28;20473;-47
2023/01/07 02:03:13;;;;;;;0.73;0.60;;;10.50;99.90;;;;;;5026252;28;20599;-48
2023/01/07 02:05:42;;;;;;;0.97;0.40;;;10.50;99.90;;;;;;5029182;28;20524;-47
2023/01/07 02:08:11;;;;;;;0.70;0.50;;;10.50;99.90;;;;;;5051048;28;20437;-45
2023/01/07 02:10:40;;;;;;;0.70;0.40;;;10.50;99.90;;;;;;5032775;28;20440;-46
2023/01/07 02:13:31;;;;;;;0.60;0.47;;;10.50;99.90;;;;;;5045253;28;21016;-46
2023/01/07 02:16:05;;;;;;;0.70;0.40;;;10.50;99.90;;;;;;5030566;28;20530;-49
2023/01/07 02:18:44;;;;;;;0.80;0.40;;;10.50;99.90;;;;;;5062793;28;20967;-46
2023/01/07 02:21:24;;;;;;;0.53;0.40;;;10.50;99.90;;;;;;5031914;28;20489;-46
2023/01/07 02:24:24;;;;;;;0.60;0.33;;;10.50;99.90;;;;;;5044735;28;20906;-47
2023/01/07 02:27:21;;;;;;;0.90;0.50;;;10.50;99.90;;;;;;5055240;28;20456;-46
2023/01/07 02:30:23;;;;;;;0.80;0.57;;;10.50;99.90;;;;;;5021528;28;20483;-46
2023/01/07 02:33:17;;;;;;;0.50;0.33;;;10.50;99.90;;;;;;5038303;28;20443;-51
2023/01/07 02:36:18;;;;;;;0.50;0.37;;;10.50;99.90;;;;;;5045412;28;20997;-48
2023/01/07 02:38:59;;;;;;;0.60;0.50;;;10.50;99.90;;;;;;5050582;28;20456;-47
2023/01/07 02:41:38;;;;;;;0.60;0.40;;;10.50;99.90;;;;;;5059854;28;20588;-47
2023/01/07 02:44:16;;;;;;;0.90;0.50;;;10.50;99.90;;;;;;5045826;28;20562;-46
2023/01/07 02:46:51;;;;;;;0.63;0.43;;;10.50;99.90;;;;;;5044102;28;20891;-45
2023/01/07 02:49:23;;;;;;;0.80;0.70;;;10.50;99.90;;;;;;5047770;28;20508;-47
2023/01/07 02:51:52;;;;;;;0.60;0.53;;;10.50;99.90;;;;;;5029306;28;20442;-45
2023/01/07 02:54:23;;;;;;;2.30;0.67;;;10.50;99.90;;;;;;5059399;28;20576;-46
2023/01/07 02:57:18;;;;;;;0.50;0.43;;;10.50;99.90;;;;;;5040320;28;20914;-47
2023/01/07 03:00:04;;;;;;;0.90;0.60;;;10.50;99.90;;;;;;5043774;28;20472;-47
2023/01/07 03:02:47;;;;;;;0.60;0.50;;;10.50;99.90;;;;;;5043824;28;20458;-47
2023/01/07 03:05:41;;;;;;;0.60;0.40;;;10.50;99.90;;;;;;5027907;28;20473;-45
2023/01/07 03:08:21;;;;;;;0.90;0.60;;;10.50;99.90;;;;;;5025198;28;20438;-46
2023/01/07 03:10:57;;;;;;;0.80;0.50;;;10.50;99.90;;;;;;5034823;28;20450;-48
2023/01/07 03:13:30;;;;;;;0.93;0.73;;;10.50;99.90;;;;;;5044872;28;20649;-47
2023/01/07 03:16:05;;;;;;;0.60;0.50;;;10.50;99.90;;;;;;5030846;28;20559;-46
2023/01/07 03:18:39;;;;;;;0.80;0.60;;;10.40;99.90;;;;;;5044545;28;20475;-46
2023/01/07 03:21:13;;;;;;;0.73;0.57;;;10.50;99.90;;;;;;5029701;28;20459;-47
2023/01/07 03:23:45;;;;;;;0.70;0.70;;;10.50;99.90;;;;;;5044197;28;20451;-46
2023/01/07 03:26:20;;;;;;;0.80;0.50;;;10.50;99.90;;;;;;5045546;28;20982;-46
2023/01/07 03:28:52;;;;;;;0.80;0.80;;;10.50;99.90;;;;;;5025158;28;20472;-46
2023/01/07 03:31:22;;;;;;;0.60;0.40;;;10.50;99.90;;;;;;5028872;28;20757;-47
2023/01/07 03:33:54;;;;;;;1.13;0.50;;;10.40;99.90;;;;;;5039785;28;20970;-47
2023/01/07 03:36:29;;;;;;;0.70;0.60;;;10.50;99.90;;;;;;5056291;28;20492;-47
2023/01/07 03:38:59;;;;;;;0.90;0.77;;;10.50;99.90;;;;;;5026239;28;20464;-46
2023/01/07 03:44:15;;;;;;;0.80;0.63;;;10.50;99.90;;;;;;5045961;28;20876;-46
2023/01/07 03:46:44;;;;;;;1.00;0.50;;;10.40;99.90;;;;;;5045198;28;21532;-47
2023/01/07 03:49:13;;;;;;;1.10;1.00;;;10.40;99.90;;;;;;5027655;28;20483;-48
2023/01/07 03:51:44;;;;;;;0.80;0.67;;;10.50;99.90;;;;;;5038202;28;20436;-47
2023/01/07 03:54:13;;;;;;;1.63;0.90;;;10.40;99.90;;;;;;5058266;28;20927;-46
2023/01/07 03:56:42;;;;;;;1.50;0.83;;;10.40;99.90;;;;;;5032654;28;20469;-48
2023/01/07 03:59:10;;;;;;;1.97;0.70;;;10.50;99.90;;;;;;5030959;28;20502;-46
2023/01/07 04:01:39;;;;;;;0.60;0.60;;;10.40;99.90;;;;;;5046126;28;20798;-46
2023/01/07 04:04:08;;;;;;;0.90;0.57;;;10.50;99.90;;;;;;5047778;28;20814;-46
2023/01/07 04:06:37;;;;;;;0.90;0.67;;;10.40;99.90;;;;;;5034463;28;20444;-47
2023/01/07 04:09:07;;;;;;;0.90;0.60;;;10.40;99.90;;;;;;5030484;28;20478;-48
2023/01/07 04:11:36;;;;;;;0.70;0.63;;;10.40;99.90;;;;;;5046707;28;20464;-47
2023/01/07 04:14:04;;;;;;;1.07;0.80;;;10.40;99.90;;;;;;5048416;28;20942;-47
2023/01/07 04:16:33;;;;;;;0.70;0.60;;;10.40;99.90;;;;;;5044038;28;20484;-46
2023/01/07 04:19:03;;;;;;;0.93;0.80;;;10.40;99.90;;;;;;5031448;28;20483;-47
2023/01/07 04:21:32;;;;;;;0.60;0.50;;;10.40;99.90;;;;;;5048330;28;20844;-48
2023/01/07 04:24:02;;;;;;;0.80;0.73;;;10.40;99.90;;;;;;5054009;28;20517;-48
2023/01/07 04:26:32;;;;;;;1.03;0.80;;;10.40;99.90;;;;;;5048731;28;20468;-49
2023/01/07 04:29:01;;;;;;;1.13;1.00;;;10.40;99.90;;;;;;5045005;28;20466;-47
2023/01/07 04:31:30;;;;;;;1.20;0.80;;;10.40;99.90;;;;;;5026927;28;20849;-45
2023/01/07 04:33:59;;;;;;;1.53;1.00;;;10.40;99.90;;;;;;5032407;28;20451;-47
2023/01/07 04:36:27;;;;;;;0.70;0.40;;;10.40;99.90;;;;;;5048679;28;20461;-46
2023/01/07 04:38:57;;;;;;;0.70;0.60;;;10.40;99.90;;;;;;5045133;28;20524;-46
2023/01/07 04:41:26;;;;;;;0.80;0.80;;;10.40;99.90;;;;;;5063761;28;20477;-46
2023/01/07 04:43:56;;;;;;;1.40;0.87;;;10.40;99.90;;;;;;5045178;28;20858;-45
2023/01/07 04:46:26;;;;;;;0.70;0.70;;;10.40;99.90;;;;;;5030806;28;20490;-47
2023/01/07 04:48:56;;;;;;;0.73;0.70;;;10.40;99.90;;;;;;5029920;28;20685;-47
2023/01/07 04:51:25;;;;;;;0.50;0.50;;;10.40;99.90;;;;;;5036287;28;20988;-48
2023/01/07 04:53:56;;;;;;;0.60;0.60;;;10.40;99.90;;;;;;5063661;28;20450;-46
2023/01/07 04:56:25;;;;;;;0.97;0.87;;;10.40;99.90;;;;;;5031231;28;20848;-47
2023/01/07 04:58:56;;;;;;;3.63;0.63;;;10.40;99.90;;;;;;5049965;28;20867;-47
2023/01/07 05:01:25;;;;;;;1.33;0.70;;;10.40;99.90;;;;;;5047354;28;20886;-46
2023/01/07 05:03:54;;;;;;;0.80;0.67;;;10.40;99.90;;;;;;5033281;28;20447;-48
2023/01/07 05:06:25;;;;;;;0.97;0.50;;;10.40;99.90;;;;;;5047731;28;20458;-47
2023/01/07 05:08:54;;;;;;;0.90;0.70;;;10.40;99.90;;;;;;5027053;28;20484;-45
2023/01/07 05:11:23;;;;;;;1.40;0.80;;;10.40;99.90;;;;;;5045203;28;20432;-47
2023/01/07 05:14:00;;;;;;;1.03;0.57;;;10.40;99.90;;;;;;5025018;28;21029;-47
2023/01/07 05:16:32;;;;;;;0.60;0.53;;;10.40;99.90;;;;;;5024932;28;20489;-45
2023/01/07 05:19:04;;;;;;;0.50;0.40;;;10.40;99.90;;;;;;5030374;28;20996;-45
2023/01/07 05:21:37;;;;;;;0.80;0.80;;;10.40;99.90;;;;;;5046375;28;20471;-47
2023/01/07 05:24:07;;;;;;;0.90;0.60;;;10.40;99.90;;;;;;5047656;28;20465;-48
2023/01/07 05:26:36;;;;;;;0.80;0.63;;;10.40;99.90;;;;;;5036202;28;20441;-45
2023/01/07 05:29:07;;;;;;;0.93;0.67;;;10.40;99.90;;;;;;5045465;28;20504;-48
2023/01/07 05:31:35;;;;;;;1.00;0.80;;;10.40;99.90;;;;;;5030820;28;20474;-46
2023/01/07 05:34:05;;;;;;;1.20;0.70;;;10.40;99.90;;;;;;5035444;28;20435;-47
2023/01/07 05:36:33;;;;;;;1.10;0.90;;;10.40;99.90;;;;;;5056503;28;20458;-49
2023/01/07 05:39:04;;;;;;;0.90;0.70;;;10.40;99.90;;;;;;5033511;28;20984;-47
2023/01/07 05:41:34;;;;;;;1.10;0.80;;;10.40;99.90;;;;;;5037589;28;20507;-46
2023/01/07 05:44:02;;;;;;;0.70;0.60;;;10.40;99.90;;;;;;5029415;28;21004;-46
2023/01/07 05:46:32;;;;;;;1.23;1.00;;;10.40;99.90;;;;;;5027072;28;20747;-46
2023/01/07 05:49:01;;;;;;;0.73;0.73;;;10.40;99.90;;;;;;5060257;28;20456;-47
2023/01/07 05:51:30;;;;;;;1.50;0.73;;;10.40;99.90;;;;;;5063220;28;20429;-45
2023/01/07 05:53:58;;;;;;;1.93;1.13;;;10.40;99.90;;;;;;5047041;28;20651;-47
2023/01/07 05:56:27;;;;;;;0.80;0.70;;;10.40;99.90;;;;;;5041984;28;20472;-47
2023/01/07 05:58:55;;;;;;;1.03;0.90;;;10.40;99.90;;;;;;5043282;28;20453;-46
2023/01/07 06:01:24;;;;;;;0.73;0.70;;;10.40;99.90;;;;;;5030961;28;20482;-47
2023/01/07 06:03:54;;;;;;;1.07;0.53;;;10.40;99.90;;;;;;5030681;28;20465;-45
2023/01/07 06:06:22;;;;;;;1.50;1.00;;;10.40;99.90;;;;;;5049938;28;20683;-46
2023/01/07 06:08:51;;;;;;;0.87;0.70;;;10.40;99.90;;;;;;5029292;28;20998;-47
2023/01/07 06:11:19;;;;;;;1.00;0.90;;;10.40;99.90;;;;;;5031225;28;20828;-46
2023/01/07 06:13:48;;;;;;;0.70;0.60;;;10.40;99.90;;;;;;5038162;28;20436;-48
2023/01/07 06:16:17;;;;;;;0.80;0.80;;;10.40;99.90;;;;;;5025001;28;20454;-48
2023/01/07 06:18:45;;;;;;;0.93;0.67;;;10.40;99.90;;;;;;5035598;28;20463;-45
2023/01/07 06:21:17;;;;;;;0.70;0.70;;;10.30;99.90;;;;;;5029329;28;20439;-48
2023/01/07 06:23:45;;;;;;;0.90;0.60;;;10.40;99.90;;;;;;5040705;28;20439;-46
2023/01/07 06:26:14;;;;;;;1.80;0.77;;;10.30;99.90;;;;;;5046273;28;20435;-48
2023/01/07 06:28:42;;;;;;;1.67;1.10;;;10.30;99.90;;;;;;5034493;28;20460;-47
2023/01/07 06:31:11;;;;;;;1.47;0.70;;;10.30;99.90;;;;;;5045754;28;20534;-46
2023/01/07 06:33:40;;;;;;;0.97;0.77;;;10.30;99.90;;;;;;5036562;28;20459;-47
2023/01/07 06:36:09;;;;;;;0.93;0.73;;;10.30;99.90;;;;;;5045682;28;20808;-48
2023/01/07 06:38:40;;;;;;;0.70;0.50;;;10.30;99.90;;;;;;5046075;28;20627;-46
2023/01/07 06:41:09;;;;;;;0.70;0.60;;;10.30;99.90;;;;;;5032747;28;20868;-47
2023/01/07 06:43:37;;;;;;;1.00;0.80;;;10.30;99.90;;;;;;5038259;28;20477;-47
2023/01/07 06:46:06;;;;;;;1.07;0.97;;;10.30;99.90;;;;;;5044109;28;20497;-45
2023/01/07 06:48:35;;;;;;;0.87;0.70;;;10.30;99.90;;;;;;5061100;28;20460;-47
2023/01/07 06:51:03;;;;;;;0.90;0.80;;;10.30;99.90;;;;;;5050859;28;20451;-46
2023/01/07 06:53:32;;;;;;;0.77;0.60;;;10.30;99.90;;;;;;5042577;28;20437;-48
2023/01/07 06:56:02;;;;;;;1.23;0.70;;;10.30;99.90;;;;;;5045349;28;20439;-48
2023/01/07 06:58:31;;;;;;;1.77;0.67;;;10.30;99.90;;;;;;5042456;28;20460;-47
2023/01/07 07:01:04;;;;;;;1.50;0.63;;;10.30;99.90;;;;;;5028847;28;20447;-47
2023/01/07 07:03:32;;;;;;;0.60;0.50;;;10.30;99.90;;;;;;5043366;28;20813;-48
2023/01/07 07:06:01;;;;;;;1.10;0.83;;;10.30;99.90;;;;;;5059810;28;20473;-47
2023/01/07 07:08:30;;;;;;;0.87;0.80;;;10.30;99.90;;;;;;5028241;28;20463;-47
2023/01/07 07:10:58;;;;;;;0.90;0.83;;;10.30;99.90;;;;;;5029350;28;20449;-48
2023/01/07 07:13:28;;;;;;;0.83;0.67;;;10.30;99.90;;;;;;5056384;28;20821;-48
2023/01/07 07:15:56;;;;;;;0.73;0.60;;;10.30;99.90;;;;;;5027069;28;20756;-47
2023/01/07 07:18:25;;;;;;;0.70;0.67;;;10.30;99.90;;;;;;5053567;28;20481;-47
2023/01/07 07:20:54;;;;;;;1.10;1.00;;;10.30;99.90;;;;;;5031058;28;20473;-47
2023/01/07 07:23:22;;;;;;;1.23;0.80;;;10.30;99.90;;;;;;5026525;28;20455;-47
2023/01/07 07:25:51;;;;;;;0.60;0.60;;;10.30;99.90;;;;;;5042879;28;20442;-46
2023/01/07 07:28:20;;;;;;;0.80;0.50;;;10.30;99.90;;;;;;5061396;28;20460;-46
2023/01/07 07:30:49;;;;;;;1.00;1.00;;;10.30;99.90;;;;;;5035364;28;21067;-47
2023/01/07 07:33:18;;;;;;;0.80;0.70;;;10.30;99.90;;;;;;5029832;28;20480;-45
2023/01/07 07:35:48;;;;;;;1.77;0.80;;;10.30;99.90;;;;;;5037737;28;20451;-47
2023/01/07 07:38:17;;;;;;;0.80;0.80;;;10.30;99.90;;;;;;5034108;28;20477;-47
2023/01/07 07:40:46;;;;;;;1.93;0.87;;;10.30;99.90;;;;;;5051207;28;20449;-46
2023/01/07 07:43:15;;;;;;;0.83;0.60;;;10.30;99.90;;;;;;5032987;28;20507;-46
2023/01/07 07:45:44;;;;;;;0.80;0.63;;;10.30;99.90;;;;;;5045770;28;20450;-46
2023/01/07 07:48:15;;;;;;;1.10;0.80;;;10.30;99.90;;;;;;5049694;28;20475;-47
2023/01/07 07:50:44;;;;;;;1.00;0.90;;;10.30;99.90;;;;;;5037333;28;20500;-46
2023/01/07 07:53:14;;;;;;;1.03;0.67;;;10.30;99.90;;;;;;5050915;28;20435;-47
2023/01/07 07:55:45;;;;;;;1.00;0.80;;;10.30;99.90;;;;;;5040414;28;20884;-47
2023/01/07 07:58:14;;;;;;;0.77;0.60;;;10.30;99.90;;;;;;5054293;28;20469;-48
2023/01/07 08:00:42;;;;;;;2.13;0.77;;;10.30;99.90;;;;;;5035711;28;20472;-46
2023/01/07 08:03:11;;;;;;;0.97;0.70;;;10.30;99.90;;;;;;5036990;28;20454;-45
2023/01/07 08:05:43;;;;;;;0.93;0.73;;;10.30;99.90;;;;;;5036664;28;20468;-47
2023/01/07 08:08:13;;;;;;;0.67;0.63;;;10.30;99.90;;;;;;5049487;28;20436;-48
2023/01/07 08:10:42;;;;;;;0.90;0.80;;;10.30;99.90;;;;;;5034883;28;20522;-46
2023/01/07 08:13:11;;;;;;;0.90;0.80;;;10.30;99.90;;;;;;5062807;28;20435;-48
2023/01/07 08:15:39;;;;;;;0.90;0.90;;;10.30;99.90;;;;;;5051983;28;20507;-46
2023/01/07 08:18:10;;;;;;;2.07;0.90;;;10.30;99.90;;;;;;5038305;28;20456;-46
2023/01/07 08:20:38;;;;;;;0.83;0.60;;;10.30;99.90;;;;;;5049526;28;20448;-47
2023/01/07 08:23:09;;;;;;;0.93;0.80;;;10.30;99.90;;;;;;5031785;28;20538;-47
2023/01/07 08:25:38;;;;;;;0.83;0.63;;;10.30;99.90;;;;;;5030303;28;20469;-46
2023/01/07 08:28:07;;;;;;;0.87;0.70;;;10.30;99.90;;;;;;5034462;28;20443;-48
2023/01/07 08:30:36;;;;;;;1.10;0.70;;;10.30;99.90;;;;;;5039066;28;20480;-45
2023/01/07 08:33:05;;;;;;;0.90;0.77;;;10.30;99.90;;;;;;5052663;28;20446;-46
2023/01/07 08:35:34;;;;;;;0.70;0.70;;;10.30;99.90;;;;;;5031274;28;20472;-47
2023/01/07 08:38:04;;;;;;;1.10;0.70;;;10.30;99.90;;;;;;5065006;28;20463;-46
2023/01/07 08:40:35;;;;;;;1.30;0.87;;;10.30;99.90;;;;;;5048746;28;20477;-47
2023/01/07 08:43:05;;;;;;;1.10;0.80;;;10.30;99.90;;;;;;5032219;28;20532;-47
2023/01/07 08:45:34;;;;;;;1.67;1.13;;;10.30;99.90;;;;;;5048456;28;20479;-47
2023/01/07 08:48:03;;;;;;;1.00;0.90;;;10.30;99.90;;;;;;5063576;28;21039;-45
2023/01/07 08:50:33;;;;;;;0.73;0.70;;;10.30;99.90;;;;;;5027493;28;20541;-46
2023/01/07 08:53:01;;;;;;;0.83;0.70;;;10.30;99.90;;;;;;5033245;28;20433;-46
2023/01/07 08:55:30;;;;;;;3.20;1.07;;;10.30;99.90;;;;;;5063704;28;20454;-46
2023/01/07 08:58:00;;;;;;;0.90;0.63;;;10.30;99.90;;;;;;5049456;28;20816;-47
2023/01/07 09:00:28;;;;;;;1.07;0.97;;;10.30;99.90;;;;;;5059702;28;20526;-47
2023/01/07 09:02:57;;;;;;;0.70;0.70;;;10.30;99.90;;;;;;5061420;28;20944;-46
2023/01/07 09:05:26;;;;;;;1.10;1.00;;;10.30;99.90;;;;;;5048673;28;20504;-47
2023/01/07 09:07:55;;;;;;;0.90;0.80;;;10.30;99.90;;;;;;5051521;28;20947;-47
2023/01/07 09:10:26;;;;;;;0.90;0.70;;;10.30;99.90;;;;;;5039857;28;20493;-47
2023/01/07 09:12:55;;;;;;;1.57;1.20;;;10.30;99.90;;;;;;5047970;28;20430;-45
2023/01/07 09:15:25;;;;;;;1.40;1.30;;;10.30;99.90;;;;;;5024112;28;20832;-46
2023/01/07 09:17:53;;;;;;;2.23;1.40;;;10.30;99.90;;;;;;5042896;28;20450;-46
2023/01/07 09:20:22;;;;;;;1.10;1.00;;;10.30;99.90;;;;;;5046926;28;20540;-46
2023/01/07 09:22:50;;;;;;;3.23;1.33;;;10.30;99.90;;;;;;5040850;28;21283;-45
2023/01/07 09:25:19;;;;;;;1.30;1.20;;;10.30;99.90;;;;;;5030299;28;20482;-47
2023/01/07 09:27:48;;;;;;;2.13;1.30;;;10.30;99.90;;;;;;5036836;28;20460;-46
2023/01/07 09:30:17;;;;;;;2.50;1.20;;;10.30;99.90;;;;;;5041188;28;20479;-47
2023/01/07 09:32:47;;;;;;;1.13;1.00;;;10.30;99.90;;;;;;5034494;28;21299;-46
2023/01/07 09:35:16;;;;;;;0.80;0.80;;;10.30;99.90;;;;;;5063385;28;20513;-46
2023/01/07 09:37:44;;;;;;;1.07;0.97;;;10.30;99.90;;;;;;5034748;28;22120;-47
2023/01/07 09:40:21;;;;;;;0.97;0.87;;;10.30;99.90;;;;;;5030050;28;20471;-45
2023/01/07 09:42:57;;;;;;;1.20;1.10;;;10.30;99.90;;;;;;5033227;28;20489;-48
2023/01/07 09:45:29;;;;;;;1.20;1.10;;;10.40;99.90;;;;;;5028188;28;20520;-46
2023/01/07 09:48:03;;;;;;;1.40;1.03;;;10.30;99.90;;;;;;5046393;28;20459;-47
2023/01/07 09:50:44;;;;;;;1.10;0.80;;;10.30;99.90;;;;;;5046485;28;20997;-46
2023/01/07 09:53:16;;;;;;;1.50;1.10;;;10.30;99.90;;;;;;5025903;28;20452;-47
2023/01/07 09:55:47;;;;;;;1.40;0.70;;;10.40;99.90;;;;;;5048185;28;20878;-47
2023/01/07 09:58:37;;;;;;;1.40;1.10;;;10.40;99.90;;;;;;5042661;28;20494;-45
2023/01/07 10:01:16;;;;;;;0.83;0.83;;;10.30;99.90;;;;;;5035630;28;20452;-46
2023/01/07 10:04:00;;;;;;;1.07;0.97;;;10.30;99.90;;;;;;5027237;28;20487;-46
2023/01/07 10:06:36;;;;;;;1.33;0.90;;;10.30;99.90;;;;;;5040988;28;20450;-47
2023/01/07 10:09:22;;;;;;;1.10;1.00;;;10.30;99.90;;;;;;5029041;28;20476;-47
2023/01/07 10:12:01;;;;;;;2.27;1.30;;;10.40;99.90;;;;;;5048442;28;20444;-47
2023/01/07 10:15:13;;;;;;;1.17;1.07;;;10.30;99.90;;;;;;5032307;28;20474;-46
2023/01/07 10:17:54;;;;;;;1.03;0.93;;;10.40;99.90;;;;;;5013406;28;20461;-46
2023/01/07 10:20:33;;;;;;;1.33;0.90;;;10.40;99.90;;;;;;5046101;28;20476;-48
2023/01/07 10:23:07;;;;;;;1.87;0.90;;;10.40;99.90;;;;;;5047754;28;20437;-46
2023/01/07 10:25:41;;;;;;;1.50;1.00;;;10.40;99.90;;;;;;5041552;28;20515;-46
2023/01/07 10:28:13;;;;;;;1.63;0.80;;;10.40;99.90;;;;;;5032675;28;20481;-46
2023/01/07 10:30:46;;;;;;;1.40;0.90;;;10.40;99.90;;;;;;5047016;28;20463;-47
2023/01/07 10:33:19;;;;;;;0.93;0.87;;;10.40;99.90;;;;;;5029461;28;20436;-46
2023/01/07 10:36:01;;;;;;;4.07;1.30;;;10.40;99.90;;;;;;5026102;28;20466;-46
2023/01/07 10:38:34;;;;;;;1.93;1.03;;;10.40;99.90;;;;;;5030352;28;20476;-46
2023/01/07 10:41:09;;;;;;;4.83;1.40;;;10.50;99.90;;;;;;5049848;28;20820;-47
2023/01/07 10:43:53;;;;;;;2.10;1.27;;;10.50;99.90;;;;;;5027462;28;20879;-49
2023/01/07 10:46:38;;;;;;;3.53;1.40;;;10.50;99.90;;;;;;5055480;28;20463;-47
2023/01/07 10:49:24;;;;;;;1.55;1.30;;;10.60;99.90;;;;;;5029572;28;21202;-46
2023/01/07 10:52:15;;;;;;;1.33;1.23;;;10.60;99.90;;;;;;5038605;28;20199;-49
2023/01/07 10:55:16;;;;;;;3.80;0.90;;;10.60;99.90;;;;;;5039512;28;21003;-46
2023/01/07 10:57:47;;;;;;;1.40;1.30;;;10.50;99.90;;;;;;5031990;28;20822;-48
2023/01/07 11:00:20;;;;;;;1.40;1.30;;;10.50;99.90;;;;;;5023055;28;20490;-47
2023/01/07 11:02:53;;;;;;;0.93;0.87;;;10.50;99.90;;;;;;5037275;28;20447;-46
2023/01/07 11:05:28;;;;;;;2.10;1.27;;;10.50;99.90;;;;;;5028381;28;20481;-48
2023/01/07 11:08:01;;;;;;;1.00;0.80;;;10.50;99.90;;;;;;5029388;28;20443;-47
2023/01/07 11:10:33;;;;;;;1.13;1.00;;;10.40;99.90;;;;;;5057491;28;21060;-47
2023/01/07 11:13:06;;;;;;;1.77;1.30;;;10.40;99.90;;;;;;5043259;28;20474;-47
2023/01/07 11:15:38;;;;;;;1.33;1.23;;;10.40;99.90;;;;;;5058059;28;20503;-45
2023/01/07 11:18:12;;;;;;;1.07;1.00;;;10.40;99.90;;;;;;5046226;28;20505;-47
2023/01/07 11:20:46;;;;;;;1.30;1.20;;;10.40;99.90;;;;;;5026785;28;20869;-46
2023/01/07 11:23:35;;;;;;;0.83;0.80;;;10.40;99.90;;;;;;5028433;28;21022;-45
2023/01/07 11:26:16;;;;;;;7.03;2.50;;;10.40;99.90;;;;;;5030505;28;20994;-47
2023/01/07 11:28:52;;;;;;;2.43;1.07;;;10.40;99.90;;;;;;5060382;28;20558;-47
2023/01/07 11:31:45;;;;;;;1.43;0.90;;;10.40;99.90;;;;;;5043809;28;20471;-47
2023/01/07 11:34:22;;;;;;;1.73;1.13;;;10.40;99.90;;;;;;5038267;28;20524;-46
2023/01/07 11:36:51;;;;;;;2.47;1.20;;;10.40;99.90;;;;;;5034931;28;20508;-46
2023/01/07 11:39:24;;;;;;;0.83;0.70;;;10.40;99.90;;;;;;5044197;28;20492;-47
2023/01/07 11:41:55;;;;;;;1.00;0.80;;;10.40;99.90;;;;;;5030514;28;20814;-47
2023/01/07 11:44:24;;;;;;;1.43;1.00;;;10.40;99.90;;;;;;5047383;28;20443;-49
2023/01/07 11:46:54;;;;;;;1.30;0.93;;;10.40;99.90;;;;;;5045880;28;20445;-47
2023/01/07 11:49:26;;;;;;;1.10;1.00;;;10.40;99.90;;;;;;5042833;28;20471;-46
2023/01/07 11:51:55;;;;;;;1.53;1.40;;;10.40;99.90;;;;;;5023730;28;20795;-47
2023/01/07 11:54:27;;;;;;;1.43;1.20;;;10.40;99.90;;;;;;5059241;28;20436;-47
2023/01/07 11:57:11;;;;;;;1.10;1.00;;;10.40;99.90;;;;;;5047298;28;20510;-47
2023/01/07 11:59:40;;;;;;;1.33;0.90;;;10.40;99.90;;;;;;5027854;28;20477;-48
2023/01/07 12:02:25;;;;;;;1.10;0.97;;;10.40;99.90;;;;;;5032602;28;20913;-47
2023/01/07 12:05:17;;;;;;;1.10;1.00;;;10.40;99.90;;;;;;5038678;28;20492;-46
2023/01/07 12:07:50;;;;;;;1.90;1.33;;;10.40;99.90;;;;;;5054526;28;20626;-47
2023/01/07 12:10:35;;;;;;;1.53;1.00;;;10.40;99.90;;;;;;5042109;28;20526;-46
2023/01/07 12:13:19;;;;;;;1.40;1.30;;;10.40;99.90;;;;;;5043121;28;20451;-48
2023/01/07 12:15:51;;;;;;;1.37;1.27;;;10.40;99.90;;;;;;5037058;28;20524;-46
2023/01/07 12:18:43;;;;;;;1.50;1.33;;;10.40;99.90;;;;;;5050101;28;20473;-47
2023/01/07 12:21:41;;;;;;;1.17;0.90;;;10.40;99.90;;;;;;5047464;28;20472;-47
2023/01/07 12:24:42;;;;;;;1.87;1.30;;;10.40;99.90;;;;;;5041890;28;21373;-46
2023/01/07 12:27:26;;;;;;;1.60;1.33;;;10.40;99.90;;;;;;5043737;28;20505;-46
2023/01/07 12:30:15;;;;;;;2.00;1.27;;;10.40;99.90;;;;;;5030353;28;21010;-47
2023/01/07 12:32:53;;;;;;;2.43;1.73;;;10.50;99.90;;;;;;5052499;28;20944;-46
2023/01/07 12:35:27;;;;;;;2.10;1.90;;;10.50;99.90;;;;;;5049572;28;20485;-47
2023/01/07 12:38:02;;;;;;;2.87;1.60;;;10.50;99.90;;;;;;5057290;28;20440;-49
2023/01/07 12:40:36;;;;;;;2.30;1.93;;;10.50;99.90;;;;;;5044165;28;20524;-49
2023/01/07 12:43:14;;;;;;;2.47;2.27;;;10.60;99.90;;;;;;5050276;28;20467;-49
2023/01/07 12:45:47;;;;;;;2.50;2.17;;;10.60;99.90;;;;;;5064698;28;20515;-47
2023/01/07 12:48:25;;;;;;;2.37;2.13;;;10.60;99.90;;;;;;5050920;28;20505;-47
2023/01/07 12:51:04;;;;;;;3.35;2.33;;;10.60;99.90;;;;;;5046559;28;20546;-47
2023/01/07 12:53:38;;;;;;;3.27;2.20;;;10.70;99.90;;;;;;5066742;28;20180;-48
2023/01/07 12:56:15;;;;;;;4.47;2.60;;;10.80;99.90;;;;;;5068167;28;20462;-47
2023/01/07 12:58:50;;;;;;;3.80;2.20;;;10.80;99.90;;;;;;5053439;28;20451;-47
2023/01/07 13:01:29;;;;;;;6.20;2.20;;;10.70;99.90;;;;;;5076910;28;20526;-45
2023/01/07 13:04:08;;;;;;;4.60;2.70;;;10.60;99.90;;;;;;5052956;28;20442;-49
2023/01/07 13:06:43;;;;;;;2.37;2.17;;;10.60;99.90;;;;;;5063254;28;20449;-48
2023/01/07 13:09:24;;;;;;;4.83;1.50;;;10.60;99.90;;;;;;5052209;28;21028;-48
2023/01/07 13:15:15;;;;;;;2.80;1.80;;;10.80;99.90;;;;;;5039349;28;20481;-46
2023/01/07 13:17:43;;;;;;;5.20;3.17;;;10.80;99.90;;;;;;5047333;28;20445;-49
2023/01/07 13:20:13;;;;;;;3.80;2.30;;;10.80;99.90;;;;;;5045797;28;20484;-50
2023/01/07 13:22:45;;;;;;;2.80;2.47;;;10.80;99.90;;;;;;5043501;28;20608;-49